Time;durP1;ratioP1;P1;durP2;ratioP2;P2;SDS_P1;SDS_P2;PMS_P1;PMS_P2;Temp;Humidity;BMP_temperature;BMP_pressure;BME280_temperature;BME280_humidity;BME280_pressure;Samples;Min_cycle;Max_cycle;Signal;HPM_P1;HPM_P2
2022/01/30 00:00:26;;;;;;;17.33;7.03;;;;;;;14.11;38.67;103399.94;5013913;28;20030;-74
2022/01/30 00:02:51;;;;;;;24.95;8.02;;;;;;;14.09;38.83;103397.47;5013958;28;20022;-77
2022/01/30 00:05:18;;;;;;;18.15;7.93;;;;;;;14.10;38.74;103395.53;5013752;28;20080;-74
2022/01/30 00:07:44;;;;;;;21.20;7.03;;;;;;;14.14;38.44;103386.50;5013912;28;20018;-74
2022/01/30 00:10:12;;;;;;;19.25;6.97;;;;;;;14.16;38.45;103394.47;5013681;28;20437;-78
2022/01/30 00:12:48;;;;;;;18.75;6.72;;;;;;;14.12;38.53;103401.59;5013750;28;20030;-73
2022/01/30 00:15:15;;;;;;;20.85;7.63;;;;;;;14.09;38.55;103399.41;5003528;28;20044;-78
2022/01/30 00:17:48;;;;;;;18.15;6.65;;;;;;;14.11;38.33;103399.94;4997867;28;20030;-74
2022/01/30 00:20:20;;;;;;;21.88;7.70;;;;;;;14.04;38.46;103408.44;4995474;28;20026;-78
2022/01/30 00:22:52;;;;;;;14.88;7.00;;;;;;;13.87;38.29;103407.88;4994043;28;20026;-74
2022/01/30 00:25:29;;;;;;;19.13;5.78;;;;;;;13.80;38.66;103408.13;4994100;28;20026;-81
2022/01/30 00:28:04;;;;;;;24.60;6.32;;;;;;;13.69;39.42;103405.63;4993997;28;20408;-74
2022/01/30 00:30:34;;;;;;;22.10;6.65;;;;;;;13.72;39.01;103400.41;4993673;28;20500;-74
2022/01/30 00:33:01;;;;;;;17.63;5.72;;;;;;;13.80;38.77;103408.13;4993870;28;20061;-78
2022/01/30 00:35:27;;;;;;;18.77;6.57;;;;;;;13.86;38.78;103396.03;4993711;28;20022;-78
2022/01/30 00:37:54;;;;;;;17.80;6.57;;;;;;;13.88;38.78;103399.34;4993736;28;20432;-73
2022/01/30 00:40:19;;;;;;;13.18;5.65;;;;;;;13.82;38.71;103407.84;4993854;28;20053;-74
2022/01/30 00:42:45;;;;;;;18.80;5.95;;;;;;;13.77;39.00;103410.59;4993950;28;20462;-74
2022/01/30 00:45:10;;;;;;;27.80;7.03;;;;;;;13.77;38.90;103403.16;4993600;28;20481;-73
2022/01/30 00:47:36;;;;;;;17.85;6.15;;;;;;;13.80;38.93;103402.63;4993505;28;20046;-74
2022/01/30 00:50:02;;;;;;;19.10;5.80;;;;;;;13.77;39.09;103413.34;4993819;28;20465;-73
2022/01/30 00:52:28;;;;;;;15.15;5.43;;;;;;;13.78;39.47;103418.56;4993205;28;20481;-74
2022/01/30 00:54:54;;;;;;;19.02;6.03;;;;;;;13.75;39.32;103421.84;4993418;28;20113;-74
2022/01/30 00:57:19;;;;;;;18.70;5.53;;;;;;;13.83;39.08;103412.25;4993492;28;20409;-74
2022/01/30 00:59:45;;;;;;;19.40;5.88;;;;;;;13.74;39.29;103408.38;4992033;28;20030;-75
2022/01/30 01:02:10;;;;;;;17.02;5.38;;;;;;;13.78;39.14;103406.75;4993315;28;20473;-73
2022/01/30 01:04:36;;;;;;;20.75;6.47;;;;;;;13.69;39.31;103405.63;4993280;28;20034;-78
2022/01/30 01:07:02;;;;;;;17.17;5.22;;;;;;;13.50;39.86;103403.34;4993359;28;20027;-77
2022/01/30 01:09:35;;;;;;;20.85;6.85;;;;;;;13.46;39.96;103413.22;4993158;28;20035;-74
2022/01/30 01:25:42;;;;;;;12.93;5.00;;;;;;;13.45;40.28;103413.47;4993089;28;20085;-79
2022/01/30 01:28:08;;;;;;;17.05;5.93;;;;;;;13.54;39.94;103420.94;4993039;28;20093;-74
2022/01/30 01:30:33;;;;;;;17.38;5.45;;;;;;;13.56;39.95;103409.69;4992924;28;20038;-76
2022/01/30 01:33:02;;;;;;;16.52;4.97;;;;;;;13.53;40.00;103408.31;4992965;28;20034;-79
2022/01/30 01:35:27;;;;;;;19.75;5.80;;;;;;;13.54;39.70;103406.38;4992972;28;20497;-74
2022/01/30 01:37:55;;;;;;;18.67;4.95;;;;;;;13.57;40.03;103409.41;4993065;28;20024;-74
2022/01/30 01:40:21;;;;;;;14.70;4.93;;;;;;;13.58;40.09;103404.75;4992858;28;20085;-79
2022/01/30 01:42:47;;;;;;;19.05;5.75;;;;;;;13.43;40.37;103404.66;4993006;28;20061;-74
2022/01/30 01:45:18;;;;;;;20.52;5.10;;;;;;;13.50;40.15;103400.59;4992824;28;20084;-74
2022/01/30 01:47:45;;;;;;;18.60;5.15;;;;;;;13.47;40.23;103398.38;4992648;28;20089;-74
2022/01/30 01:50:17;;;;;;;18.48;5.55;;;;;;;13.49;40.16;103395.38;4992801;28;20045;-76
2022/01/30 01:52:43;;;;;;;16.95;5.50;;;;;;;13.53;40.04;103397.31;4992936;28;20396;-77
2022/01/30 01:55:09;;;;;;;17.83;4.72;;;;;;;13.53;40.03;103386.34;4991303;28;20085;-74
2022/01/30 01:57:34;;;;;;;17.95;6.35;;;;;;;13.56;39.92;103387.69;4992810;28;20034;-74
2022/01/30 02:00:01;;;;;;;13.60;4.63;;;;;;;13.55;39.89;103386.06;4991574;28;20122;-75
2022/01/30 02:02:28;;;;;;;17.70;5.65;;;;;;;13.50;39.95;103378.59;4992629;28;20022;-77
2022/01/30 02:04:57;;;;;;;18.20;5.30;;;;;;;13.45;39.79;103380.50;4995259;28;20150;-78
2022/01/30 02:10:10;;;;;;;14.63;5.63;;;;;;;13.24;40.46;103372.19;4996385;28;20030;-74
2022/01/30 02:12:46;;;;;;;13.45;5.57;;;;;;;13.35;40.38;103381.28;4996369;28;20504;-74
2022/01/30 02:25:57;;;;;;;17.23;6.13;;;;;;;13.37;40.26;103381.84;4996153;28;20093;-74
2022/01/30 02:28:25;;;;;;;19.75;5.05;;;;;;;13.35;40.34;103383.22;4996012;28;20073;-74
2022/01/30 02:30:59;;;;;;;16.70;5.45;;;;;;;13.14;40.67;103385.00;4995981;28;20054;-74
2022/01/30 02:33:25;;;;;;;11.57;5.35;;;;;;;13.19;40.55;103379.53;4995989;28;20030;-74
2022/01/30 02:35:50;;;;;;;24.30;7.18;;;;;;;13.14;40.85;103376.75;4996163;28;20037;-74
2022/01/30 02:38:17;;;;;;;17.70;4.78;;;;;;;13.17;40.65;103379.81;4995865;28;20031;-76
2022/01/30 02:40:46;;;;;;;13.63;7.38;;;;;;;13.31;40.24;103389.25;4995851;28;20562;-78
2022/01/30 02:43:14;;;;;;;14.45;5.28;;;;;;;13.26;40.09;103383.72;4995745;28;20038;-77
2022/01/30 02:45:47;;;;;;;17.67;6.43;;;;;;;13.24;40.24;103377.69;4995788;28;20034;-75
2022/01/30 02:48:17;;;;;;;17.67;6.15;;;;;;;13.16;40.42;103374.59;4995685;28;20485;-74
2022/01/30 02:53:11;;;;;;;18.17;6.32;;;;;;;13.16;40.30;103375.41;4995941;28;20457;-74
2022/01/30 02:55:37;;;;;;;19.95;5.65;;;;;;;13.17;40.34;103370.75;4995761;28;20034;-75
2022/01/30 02:58:03;;;;;;;17.33;5.85;;;;;;;13.10;40.50;103368.25;4995515;28;20030;-74
2022/01/30 03:00:28;;;;;;;17.38;4.90;;;;;;;13.05;40.49;103370.94;4995486;28;20053;-74
2022/01/30 03:02:54;;;;;;;18.50;7.30;;;;;;;12.96;40.62;103387.09;4995489;28;20062;-73
2022/01/30 03:05:20;;;;;;;16.40;6.40;;;;;;;12.96;40.51;103383.53;4995401;28;20027;-74
2022/01/30 03:07:45;;;;;;;17.17;5.90;;;;;;;12.88;40.65;103384.84;4994137;28;20536;-74
2022/01/30 03:10:11;;;;;;;19.63;5.93;;;;;;;12.93;40.68;103386.81;4995337;28;20033;-74
2022/01/30 03:12:38;;;;;;;19.92;5.88;;;;;;;12.75;40.90;103380.63;4995322;28;20109;-74
2022/01/30 03:15:05;;;;;;;21.38;6.47;;;;;;;12.85;40.69;103373.59;4993941;28;20049;-78
2022/01/30 03:17:30;;;;;;;25.40;6.53;;;;;;;12.77;40.82;103370.25;4995250;28;20030;-73
2022/01/30 03:19:56;;;;;;;18.05;6.18;;;;;;;12.68;41.07;103371.81;4993876;28;20085;-74
2022/01/30 03:22:22;;;;;;;15.60;5.47;;;;;;;12.64;41.17;103365.19;4995235;28;20040;-76
2022/01/30 03:24:48;;;;;;;14.43;6.07;;;;;;;12.60;41.18;103357.75;4995035;28;20022;-77
2022/01/30 03:27:14;;;;;;;15.38;5.53;;;;;;;12.64;41.22;103356.97;4995348;28;20496;-78
2022/01/30 03:29:41;;;;;;;22.95;7.00;;;;;;;12.72;41.03;103348.25;4994887;28;20033;-76
2022/01/30 03:32:07;;;;;;;21.13;6.90;;;;;;;12.71;40.98;103338.38;4994809;28;20077;-77
2022/01/30 03:34:32;;;;;;;16.13;5.78;;;;;;;12.77;40.95;103340.06;4994845;28;20151;-74
2022/01/30 03:36:58;;;;;;;20.95;5.68;;;;;;;12.76;40.88;103332.06;4994706;28;20070;-73
2022/01/30 03:39:24;;;;;;;19.67;6.43;;;;;;;12.73;40.98;103325.22;4994794;28;20027;-74
2022/01/30 03:41:49;;;;;;;15.68;5.75;;;;;;;12.72;40.91;103325.47;4994757;28;20049;-78
2022/01/30 03:44:15;;;;;;;15.68;5.90;;;;;;;12.73;40.90;103325.22;4994625;28;20041;-75
2022/01/30 03:46:41;;;;;;;22.85;7.10;;;;;;;12.72;40.97;103329.03;4994632;28;20026;-74
2022/01/30 03:49:06;;;;;;;21.42;6.43;;;;;;;12.65;41.06;103319.41;4992997;28;20034;-74
2022/01/30 03:51:32;;;;;;;24.00;6.40;;;;;;;12.72;40.75;103326.31;4994809;28;20029;-74
2022/01/30 03:53:58;;;;;;;14.90;4.80;;;;;;;12.62;41.05;103323.50;4994389;28;20080;-74
2022/01/30 03:56:23;;;;;;;15.45;5.45;;;;;;;12.61;41.19;103327.31;4994413;28;20026;-73
2022/01/30 03:58:49;;;;;;;18.88;5.68;;;;;;;12.57;40.91;103317.97;4994374;28;20038;-79
2022/01/30 04:01:14;;;;;;;20.23;5.10;;;;;;;12.58;41.08;103307.81;4994337;28;20162;-77
2022/01/30 04:03:40;;;;;;;17.65;5.85;;;;;;;12.48;41.33;103314.06;4994256;28;20485;-74
2022/01/30 04:06:09;;;;;;;17.38;5.15;;;;;;;12.61;40.92;103313.59;4992930;28;20033;-74
2022/01/30 04:08:35;;;;;;;25.75;6.53;;;;;;;12.58;41.25;103308.66;4994040;28;20034;-79
2022/01/30 04:11:01;;;;;;;24.27;6.70;;;;;;;12.46;41.34;103313.50;4994189;28;20113;-73
2022/01/30 04:13:27;;;;;;;18.00;5.32;;;;;;;12.45;41.34;103309.09;4994149;28;20031;-74
2022/01/30 04:15:53;;;;;;;17.27;5.35;;;;;;;12.56;41.27;103299.03;4994073;28;20030;-74
2022/01/30 04:18:19;;;;;;;19.27;5.53;;;;;;;12.60;41.04;103297.41;4993996;28;20433;-74
2022/01/30 04:20:45;;;;;;;15.38;5.75;;;;;;;12.57;41.06;103307.00;4993966;28;20100;-73
2022/01/30 04:23:11;;;;;;;22.13;5.72;;;;;;;12.64;41.08;103304.84;4993938;28;20031;-74
2022/01/30 04:25:36;;;;;;;14.73;5.97;;;;;;;12.70;40.93;103298.31;4993902;28;20049;-73
2022/01/30 04:28:02;;;;;;;20.50;5.95;;;;;;;12.70;41.10;103309.28;4993336;28;20383;-74
2022/01/30 04:30:28;;;;;;;21.35;6.43;;;;;;;12.82;40.91;103305.50;4993691;28;20061;-73
2022/01/30 04:32:54;;;;;;;17.80;5.95;;;;;;;12.79;41.09;103301.38;4993835;28;20026;-73
2022/01/30 04:35:25;;;;;;;17.55;6.35;;;;;;;12.81;41.04;103295.63;4994752;28;20076;-78
2022/01/30 05:05:34;;;;;;;13.68;5.18;;;;;;;13.14;40.71;103284.25;4993317;28;20026;-79
2022/01/30 05:07:28;;;;;;;17.92;6.53;;;;;;;13.06;40.79;103276.53;4991074;28;20031;-74
2022/01/30 05:09:54;;;;;;;15.20;6.50;;;;;;;13.22;40.56;103272.78;4992018;28;20022;-76
2022/01/30 05:12:19;;;;;;;21.60;6.85;;;;;;;13.27;40.51;103278.28;4993183;28;20029;-77
2022/01/30 05:14:45;;;;;;;21.40;5.47;;;;;;;13.37;40.51;103271.16;4993421;28;20034;-74
2022/01/30 05:17:11;;;;;;;19.33;6.28;;;;;;;13.37;40.45;103261.00;4993214;28;20396;-74
2022/01/30 05:19:37;;;;;;;10.48;4.82;;;;;;;13.33;40.36;103247.00;4993139;28;20034;-74
2022/01/30 05:22:03;;;;;;;18.63;5.88;;;;;;;13.26;40.45;103240.94;4993140;28;20160;-77
2022/01/30 05:24:29;;;;;;;16.92;7.13;;;;;;;13.23;40.67;103241.50;4993046;28;20084;-77
2022/01/30 05:26:55;;;;;;;26.77;7.47;;;;;;;13.18;40.68;103237.88;4991812;28;20060;-74
2022/01/30 05:29:20;;;;;;;14.15;6.07;;;;;;;13.22;40.58;103250.81;4991816;28;20037;-77
2022/01/30 05:31:46;;;;;;;14.15;5.97;;;;;;;13.14;40.63;103247.72;4993000;28;20545;-74
2022/01/30 05:34:13;;;;;;;25.95;7.45;;;;;;;13.31;40.25;103251.13;4992849;28;20045;-74
2022/01/30 05:36:39;;;;;;;14.25;6.45;;;;;;;13.32;40.56;103244.53;4993185;28;20446;-74
2022/01/30 05:39:06;;;;;;;12.30;5.90;;;;;;;13.36;40.49;103248.38;4994373;28;20444;-74
2022/01/30 05:41:33;;;;;;;16.70;6.03;;;;;;;13.37;40.46;103235.47;4997016;28;20058;-75
2022/01/30 05:44:09;;;;;;;19.90;7.28;;;;;;;13.30;40.61;103220.09;4997085;28;20030;-77
2022/01/30 05:46:38;;;;;;;20.75;6.43;;;;;;;13.24;40.61;103218.44;4997230;28;20472;-74
2022/01/30 05:49:04;;;;;;;14.32;5.88;;;;;;;13.13;40.95;103222.22;4996521;28;20054;-77
2022/01/30 05:51:29;;;;;;;23.75;6.40;;;;;;;13.05;41.07;103230.97;4997152;28;20568;-73
2022/01/30 05:53:55;;;;;;;18.05;6.20;;;;;;;13.12;40.96;103237.03;4996644;28;20577;-73
2022/01/30 05:56:21;;;;;;;14.75;5.88;;;;;;;13.24;40.74;103240.41;4996690;28;20022;-76
2022/01/30 05:58:46;;;;;;;32.53;9.73;;;;;;;13.30;40.60;103233.84;4996578;28;20027;-73
2022/01/30 06:01:12;;;;;;;19.02;5.57;;;;;;;13.35;40.58;103229.44;4995332;28;20393;-73
2022/01/30 06:03:37;;;;;;;19.13;7.03;;;;;;;13.43;40.51;103223.41;4995254;28;20031;-73
2022/01/30 06:06:03;;;;;;;19.20;7.32;;;;;;;13.38;40.31;103213.25;4996514;28;20037;-73
2022/01/30 06:08:45;;;;;;;18.55;6.65;;;;;;;13.39;40.48;103208.59;4996437;28;20039;-72
2022/01/30 06:11:12;;;;;;;18.48;6.00;;;;;;;13.39;40.50;103206.66;4996425;28;20030;-75
2022/01/30 06:13:38;;;;;;;20.52;7.57;;;;;;;13.42;40.56;103208.03;4996300;28;20030;-73
2022/01/30 06:16:04;;;;;;;23.90;8.00;;;;;;;13.54;40.44;103214.09;4996545;28;20096;-75
2022/01/30 06:18:30;;;;;;;18.00;6.75;;;;;;;13.53;40.45;103202.28;4995077;28;20109;-74
2022/01/30 06:20:56;;;;;;;16.90;6.28;;;;;;;13.56;40.41;103217.38;4996220;28;20101;-73
2022/01/30 06:23:26;;;;;;;21.13;7.70;;;;;;;13.63;40.30;103204.22;4996176;28;20449;-73
2022/01/30 06:25:52;;;;;;;18.77;7.50;;;;;;;13.64;40.22;103211.34;4996476;28;20026;-77
2022/01/30 06:28:18;;;;;;;15.90;6.20;;;;;;;13.70;40.26;103215.75;4996038;28;20439;-74
2022/01/30 06:30:43;;;;;;;28.13;9.13;;;;;;;13.64;40.36;103203.13;4995943;28;20026;-76
2022/01/30 06:33:09;;;;;;;14.70;6.80;;;;;;;13.62;40.53;103196.25;4995974;28;20030;-72
2022/01/30 06:35:35;;;;;;;22.27;8.30;;;;;;;13.69;40.39;103189.38;4996175;28;20070;-74
2022/01/30 06:38:02;;;;;;;23.10;7.57;;;;;;;13.75;40.08;103190.19;4996114;28;20109;-76
2022/01/30 06:40:28;;;;;;;17.08;6.63;;;;;;;13.85;40.14;103196.53;4995896;28;20030;-73
2022/01/30 06:42:53;;;;;;;21.33;7.88;;;;;;;13.90;40.09;103203.91;4995844;28;20400;-74
2022/01/30 06:45:19;;;;;;;20.77;6.57;;;;;;;13.88;40.44;103201.47;4994566;28;20026;-73
2022/01/30 06:47:45;;;;;;;26.80;7.55;;;;;;;13.94;40.17;103191.28;4994246;28;20186;-74
2022/01/30 06:50:12;;;;;;;19.27;7.40;;;;;;;13.99;40.30;103187.72;4995240;28;20516;-79
2022/01/30 06:52:38;;;;;;;19.45;6.72;;;;;;;14.04;40.29;103179.44;4995739;28;20473;-74
2022/01/30 06:55:05;;;;;;;20.98;8.70;;;;;;;14.06;40.17;103180.84;4995634;28;20031;-77
2022/01/30 06:57:31;;;;;;;16.75;7.40;;;;;;;13.99;40.24;103176.72;4995578;28;20045;-77
2022/01/30 06:59:57;;;;;;;15.02;6.45;;;;;;;13.91;40.45;103180.03;4995455;28;20469;-74
2022/01/30 07:02:23;;;;;;;14.18;6.28;;;;;;;13.86;40.44;103178.09;4995490;28;20027;-74
2022/01/30 07:04:48;;;;;;;22.90;7.65;;;;;;;13.89;40.72;103183.03;4995392;28;20029;-76
2022/01/30 07:07:15;;;;;;;21.92;7.60;;;;;;;13.92;40.57;103181.69;4994195;28;20022;-75
2022/01/30 07:09:41;;;;;;;21.90;7.22;;;;;;;13.96;40.53;103177.25;4995218;28;20034;-74
2022/01/30 07:12:07;;;;;;;20.73;6.55;;;;;;;14.01;40.64;103180.03;4995288;28;20049;-77
2022/01/30 07:14:32;;;;;;;26.98;7.90;;;;;;;13.97;40.48;103184.41;4995373;28;20432;-75
2022/01/30 07:16:59;;;;;;;16.58;6.82;;;;;;;13.91;40.76;103167.13;4995267;28;20026;-75
2022/01/30 07:19:25;;;;;;;24.15;6.38;;;;;;;13.94;40.85;103155.56;4995214;28;20022;-75
2022/01/30 07:21:51;;;;;;;16.75;6.00;;;;;;;14.04;40.61;103151.97;4995363;28;20026;-74
2022/01/30 07:24:17;;;;;;;18.40;6.32;;;;;;;14.03;40.63;103148.41;4995055;28;20033;-74
2022/01/30 07:26:43;;;;;;;29.15;8.43;;;;;;;14.01;40.50;103155.28;4995122;28;20026;-74
2022/01/30 07:29:09;;;;;;;23.10;7.07;;;;;;;14.02;40.51;103160.50;4994920;28;20409;-74
2022/01/30 07:31:34;;;;;;;17.73;5.78;;;;;;;14.04;40.50;103154.72;4994889;28;20030;-76
2022/01/30 07:34:01;;;;;;;16.40;6.70;;;;;;;14.01;40.53;103152.53;4994912;28;20055;-74
2022/01/30 07:36:27;;;;;;;17.42;6.95;;;;;;;13.89;40.58;103148.13;4994828;28;20539;-74
2022/01/30 07:38:54;;;;;;;17.60;5.90;;;;;;;13.88;40.72;103146.50;4994833;28;20072;-75
2022/01/30 07:41:22;;;;;;;15.20;5.13;;;;;;;13.86;40.60;103142.38;4994648;28;20026;-76
2022/01/30 07:43:48;;;;;;;17.90;5.65;;;;;;;13.85;40.66;103140.75;4994646;28;20027;-76
2022/01/30 07:46:14;;;;;;;17.67;5.57;;;;;;;13.82;40.62;103122.84;4994603;28;20467;-75
2022/01/30 07:48:39;;;;;;;20.40;7.45;;;;;;;13.78;40.60;103126.47;4994356;28;20057;-73
2022/01/30 07:51:05;;;;;;;17.88;5.13;;;;;;;13.76;40.67;103120.41;4994560;28;20038;-73
2022/01/30 07:53:31;;;;;;;19.80;6.97;;;;;;;13.78;40.50;103134.69;4994512;28;20101;-73
2022/01/30 07:55:57;;;;;;;16.90;6.55;;;;;;;13.75;40.44;103137.97;4994566;28;20057;-73
2022/01/30 07:58:22;;;;;;;18.13;5.72;;;;;;;13.69;40.57;103130.88;4994386;28;20034;-74
2022/01/30 08:00:49;;;;;;;17.17;5.22;;;;;;;13.65;40.55;103130.56;4994015;28;20036;-73
2022/01/30 08:03:15;;;;;;;22.42;6.55;;;;;;;13.70;40.42;103125.09;4993877;28;20033;-75
2022/01/30 08:05:41;;;;;;;11.00;5.30;;;;;;;13.68;40.46;103119.06;4994290;28;20113;-74
2022/01/30 08:08:07;;;;;;;19.05;7.07;;;;;;;13.65;40.59;103125.09;4994493;28;20030;-77
2022/01/30 08:10:34;;;;;;;12.85;5.15;;;;;;;13.60;40.28;103120.44;4994070;28;20034;-77
2022/01/30 08:13:00;;;;;;;26.13;6.18;;;;;;;13.51;40.54;103118.50;4994235;28;20504;-77
2022/01/30 08:15:25;;;;;;;21.48;5.68;;;;;;;13.57;40.30;103112.72;4994071;28;20030;-74
2022/01/30 08:17:51;;;;;;;19.38;8.13;;;;;;;13.52;40.34;103120.97;4994088;28;20604;-74
2022/01/30 08:20:18;;;;;;;20.05;8.63;;;;;;;13.42;40.54;103120.16;4993907;28;20076;-74
2022/01/30 08:22:54;;;;;;;32.17;9.75;;;;;;;13.38;40.51;103102.59;4993905;28;20041;-74
2022/01/30 08:25:22;;;;;;;20.73;6.95;;;;;;;13.43;40.57;103097.06;4998969;28;20031;-77
2022/01/30 08:27:49;;;;;;;14.93;5.07;;;;;;;13.41;40.42;103099.28;5002610;28;20027;-75
2022/01/30 08:30:15;;;;;;;11.88;4.35;;;;;;;13.40;40.49;103094.91;5002235;28;20041;-74
2022/01/30 08:32:42;;;;;;;12.43;4.78;;;;;;;13.40;40.41;103098.47;4993727;28;20081;-77
2022/01/30 08:35:10;;;;;;;19.73;5.40;;;;;;;13.39;40.54;103093.25;5001036;28;20481;-74
2022/01/30 08:37:36;;;;;;;16.38;4.35;;;;;;;13.44;40.50;103091.31;4999123;28;20030;-74
2022/01/30 08:40:13;;;;;;;13.65;4.43;;;;;;;13.44;40.55;103093.22;5000231;28;20033;-74
2022/01/30 08:42:39;;;;;;;18.48;4.60;;;;;;;13.47;40.53;103096.25;4999250;28;20444;-73
2022/01/30 08:45:06;;;;;;;11.82;4.18;;;;;;;13.60;40.46;103092.97;4998717;28;20061;-75
2022/01/30 08:47:31;;;;;;;30.80;6.20;;;;;;;13.62;40.51;103094.59;5002084;28;20030;-74
2022/01/30 08:49:57;;;;;;;20.55;4.78;;;;;;;13.60;40.58;103092.97;5003320;28;20040;-75
2022/01/30 08:52:23;;;;;;;19.63;4.55;;;;;;;13.69;40.69;103097.91;5004232;28;20440;-74
2022/01/30 08:54:50;;;;;;;20.55;5.68;;;;;;;13.74;40.77;103089.63;4993899;28;20392;-75
2022/01/30 08:57:16;;;;;;;18.27;5.05;;;;;;;13.87;40.54;103089.06;4993456;28;20097;-74
2022/01/30 08:59:41;;;;;;;18.60;4.60;;;;;;;13.95;40.58;103084.91;4993456;28;20599;-74
2022/01/30 09:02:08;;;;;;;18.75;4.35;;;;;;;13.88;40.94;103082.47;4993352;28;20077;-76
2022/01/30 09:04:34;;;;;;;15.32;5.68;;;;;;;14.09;40.75;103080.47;4993279;28;20045;-75
2022/01/30 09:06:59;;;;;;;18.23;5.20;;;;;;;14.28;40.40;103078.78;4993253;28;20493;-75
2022/01/30 09:09:25;;;;;;;18.17;3.90;;;;;;;14.34;40.47;103074.88;4989286;28;20035;-74
2022/01/30 09:11:51;;;;;;;21.95;3.97;;;;;;;14.48;40.47;103069.63;4991823;28;20109;-74
2022/01/30 09:14:17;;;;;;;22.05;4.30;;;;;;;14.58;40.32;103057.72;4992965;28;20062;-74
2022/01/30 09:16:45;;;;;;;15.75;4.28;;;;;;;14.56;40.55;103058.03;4993011;28;20535;-74
2022/01/30 09:19:11;;;;;;;21.55;5.60;;;;;;;14.59;40.50;103051.16;4993930;28;20034;-75
2022/01/30 09:21:36;;;;;;;12.88;4.32;;;;;;;14.71;40.28;103037.84;5007999;28;20045;-74
2022/01/30 09:24:03;;;;;;;13.40;3.20;;;;;;;14.66;40.55;103029.63;5012547;28;20112;-76
2022/01/30 09:26:28;;;;;;;13.98;3.80;;;;;;;14.81;40.46;103036.94;5012601;28;20060;-76
2022/01/30 09:28:54;;;;;;;18.25;3.70;;;;;;;14.96;40.19;103034.09;5012453;28;20057;-73
2022/01/30 09:31:19;;;;;;;12.10;4.85;;;;;;;14.93;40.21;103024.47;5012574;28;20072;-73
2022/01/30 09:33:45;;;;;;;18.23;6.00;;;;;;;15.19;39.91;103011.34;5012460;28;20034;-75
2022/01/30 09:36:12;;;;;;;15.60;4.10;;;;;;;15.16;39.72;103005.56;5012463;28;20039;-78
2022/01/30 09:38:37;;;;;;;19.85;5.50;;;;;;;15.20;39.89;103004.72;4998833;28;20109;-74
2022/01/30 09:41:05;;;;;;;19.70;5.10;;;;;;;15.27;39.63;102999.69;4993054;28;20113;-77
2022/01/30 09:43:32;;;;;;;14.02;4.22;;;;;;;15.31;39.62;102993.59;4992879;28;20030;-77
2022/01/30 09:45:59;;;;;;;15.18;3.88;;;;;;;15.27;39.53;102993.38;4992790;28;20362;-73
2022/01/30 09:48:25;;;;;;;14.63;3.88;;;;;;;15.26;39.45;102981.53;4992570;28;20057;-78
2022/01/30 09:50:51;;;;;;;18.13;4.05;;;;;;;15.42;39.22;102982.19;4992825;28;20038;-75
2022/01/30 09:53:17;;;;;;;15.10;3.22;;;;;;;15.40;39.33;102986.34;4992778;28;20030;-78
2022/01/30 09:55:43;;;;;;;20.10;5.18;;;;;;;15.48;39.40;102981.00;4986803;28;20046;-76
2022/01/30 09:58:09;;;;;;;12.45;3.33;;;;;;;15.47;39.40;102973.84;4998235;28;20026;-77
2022/01/30 10:00:35;;;;;;;15.75;5.00;;;;;;;15.60;39.12;102977.03;4999712;28;20036;-75
2022/01/30 10:03:01;;;;;;;12.80;3.85;;;;;;;15.74;38.99;102972.50;4961227;28;20621;-76
2022/01/30 10:05:31;;;;;;;13.63;3.70;;;;;;;15.57;39.57;102955.56;4958847;28;20027;-78
2022/01/30 10:07:57;;;;;;;12.70;3.08;;;;;;;15.69;39.27;102956.00;4989763;28;20192;-80
2022/01/30 10:10:26;;;;;;;11.45;3.28;;;;;;;15.81;39.19;102945.41;4996862;28;20121;-80
2022/01/30 10:13:11;;;;;;;12.48;3.05;;;;;;;15.74;39.04;102934.72;4996906;28;20035;-79
2022/01/30 10:16:02;;;;;;;15.00;4.00;;;;;;;15.79;38.94;102937.44;4999039;28;20037;-75
2022/01/30 10:18:32;;;;;;;14.85;3.25;;;;;;;15.91;38.74;102934.22;5001242;28;20029;-81
2022/01/30 10:20:59;;;;;;;14.55;3.72;;;;;;;15.93;38.76;102920.97;4993992;28;20026;-78
2022/01/30 10:23:36;;;;;;;12.48;4.13;;;;;;;16.04;38.76;102919.72;4995884;28;20537;-80
2022/01/30 10:26:08;;;;;;;22.13;4.78;;;;;;;16.13;38.76;102903.31;5000413;28;20040;-78
2022/01/30 10:28:34;;;;;;;11.32;3.17;;;;;;;16.24;38.80;102893.75;5004169;28;20034;-80
2022/01/30 10:31:05;;;;;;;14.57;4.07;;;;;;;16.29;38.21;102887.34;5001967;28;20133;-80
2022/01/30 10:33:47;;;;;;;14.95;3.58;;;;;;;16.30;38.02;102881.53;4998590;28;20034;-79
2022/01/30 10:36:19;;;;;;;17.42;4.13;;;;;;;16.38;37.85;102869.00;5005197;28;20033;-79
2022/01/30 10:38:47;;;;;;;18.45;3.83;;;;;;;16.54;37.67;102867.63;5004975;28;20050;-77
2022/01/30 10:41:18;;;;;;;18.67;4.85;;;;;;;16.55;37.66;102860.16;4986265;28;20065;-80
2022/01/30 10:43:51;;;;;;;15.02;4.07;;;;;;;16.58;37.57;102863.16;4999409;28;20066;-84
2022/01/30 10:46:23;;;;;;;14.20;3.63;;;;;;;16.75;37.23;102864.53;5008898;28;20041;-82
2022/01/30 10:48:59;;;;;;;15.98;2.85;;;;;;;16.79;37.20;102852.59;5001287;28;20105;-82
2022/01/30 10:51:28;;;;;;;13.43;4.75;;;;;;;16.80;37.28;102845.94;4995664;28;20044;-81
2022/01/30 10:53:55;;;;;;;10.23;3.33;;;;;;;16.91;36.96;102827.25;4997839;28;20045;-80
2022/01/30 10:56:29;;;;;;;19.00;4.80;;;;;;;16.89;36.89;102827.56;4994429;28;20026;-82
2022/01/30 10:59:24;;;;;;;13.93;4.10;;;;;;;16.83;37.03;102833.47;5002789;28;20066;-79
2022/01/30 11:01:51;;;;;;;21.83;4.35;;;;;;;16.97;36.76;102828.78;4994245;28;20045;-82
2022/01/30 11:04:28;;;;;;;20.33;4.20;;;;;;;16.92;36.71;102823.34;5004470;28;20041;-81
2022/01/30 11:06:55;;;;;;;15.23;3.28;;;;;;;16.98;36.71;102824.06;4991843;28;20484;-79
2022/01/30 11:09:27;;;;;;;21.65;3.75;;;;;;;17.06;36.53;102821.41;4992390;28;20038;-80
2022/01/30 11:12:01;;;;;;;21.45;4.82;;;;;;;16.95;36.53;102825.53;4996074;28;20026;-81
2022/01/30 11:17:25;;;;;;;31.88;6.45;;;;;;;16.92;36.72;102817.84;4997032;28;20030;-77
2022/01/30 11:19:53;;;;;;;25.55;5.10;;;;;;;17.02;36.59;102803.03;4994250;28;20384;-78
2022/01/30 11:22:20;;;;;;;35.90;7.13;;;;;;;17.08;36.64;102791.56;4981860;28;20022;-83
2022/01/30 11:28:11;;;;;;;36.20;7.32;;;;;;;17.26;36.30;102767.72;5229995;23;20090;-77
2022/01/30 11:30:37;;;;;;;37.30;7.32;;;;;;;17.10;36.38;102750.66;5010624;28;20049;-83
2022/01/30 11:33:02;;;;;;;41.65;7.25;;;;;;;17.17;36.26;102741.94;5012204;28;20045;-74
2022/01/30 11:35:28;;;;;;;27.80;5.53;;;;;;;17.29;36.40;102722.06;5018706;28;20533;-76
2022/01/30 11:37:54;;;;;;;81.22;11.80;;;;;;;17.37;36.17;102732.38;5019374;28;20126;-77
2022/01/30 11:40:21;;;;;;;17.60;4.00;;;;;;;17.46;35.79;102734.09;5018961;28;20450;-74
2022/01/30 11:42:49;;;;;;;42.55;7.85;;;;;;;17.45;36.27;102721.38;5021582;28;20042;-76
2022/01/30 11:45:27;;;;;;;44.72;7.35;;;;;;;17.57;36.16;102703.44;5021201;28;20101;-77
2022/01/30 11:48:00;;;;;;;47.40;7.53;;;;;;;17.71;35.93;102699.53;5017782;28;20026;-76
2022/01/30 11:50:30;;;;;;;141.07;26.02;;;;;;;17.75;35.94;102696.94;5013577;28;20391;-77
2022/01/30 11:53:00;;;;;;;65.50;11.05;;;;;;;17.98;35.75;102675.63;5010493;28;20110;-78
2022/01/30 11:55:48;;;;;;;23.10;5.22;;;;;;;18.10;35.57;102681.41;5020245;28;20472;-76
2022/01/30 11:58:32;;;;;;;34.40;7.22;;;;;;;18.01;35.41;102663.94;5012170;28;20486;-78
2022/01/30 12:01:26;;;;;;;48.78;8.98;;;;;;;18.18;35.17;102658.50;5010432;28;20026;-82
2022/01/30 12:04:00;;;;;;;71.80;14.57;;;;;;;18.42;34.88;102635.16;5009563;28;20493;-77
2022/01/30 12:06:26;;;;;;;70.75;11.30;;;;;;;18.46;34.90;102628.66;5018829;28;20025;-76
2022/01/30 12:08:56;;;;;;;39.17;8.02;;;;;;;18.27;34.66;102617.84;5017476;28;20038;-76
2022/01/30 12:11:39;;;;;;;;;;;;;;;18.51;34.75;102622.97;5017947;28;20062;-81
2022/01/30 12:14:10;;;;;;;40.63;8.02;;;;;;;18.51;34.51;102608.28;5014194;28;19917;-78
2022/01/30 12:16:48;;;;;;;58.22;11.68;;;;;;;18.49;34.33;102600.31;5009646;28;20037;-77
2022/01/30 12:19:19;;;;;;;35.08;7.45;;;;;;;18.42;34.45;102574.25;5009032;28;20076;-77
2022/01/30 12:21:45;;;;;;;22.75;5.15;;;;;;;18.43;34.52;102592.50;5020982;28;20033;-79